Data for 02/10/2005

Time Sea-Level Adjusted Pressure Absolute Pressure Temperature Relative Humidity Dew Point   
(mb) (inHg) (mb) (inHg) (C) (F) (%) (C) (F)
00:05 1021 30.15 850 25.1 -0.6 30.9 52 -9.3 15.3
00:10 1021 30.15 851 25.13 -1.3 29.7 51 -10.1 13.8
00:15 1021 30.15 851 25.13 -0.8 30.6 51 -9.8 14.4
00:20 1021 30.15 851 25.13 -0.7 30.7 52 -9.4 15
00:25 1022 30.18 851 25.13 -0.8 30.6 52 -9.4 15
00:30 1022 30.18 851 25.13 -1.1 30 53 -9.4 15.1
00:35 1022 30.18 851 25.13 -1.5 29.4 55 -9.4 15
00:40 1022 30.18 851 25.13 -1.3 29.6 54 -9.5 14.9
00:45 1022 30.18 851 25.13 -1.2 29.9 54 -9.3 15.2
00:50 1022 30.18 851 25.13 -1.1 30.1 55 -9.1 15.6
00:55 1022 30.18 851 25.13 -1.3 29.7 57 -8.8 16.2
01:00 1022 30.18 851 25.13 -1.9 28.6 60 -8.7 16.4
01:05 1022 30.18 851 25.13 -2.1 28.3 60 -8.7 16.3
01:10 1021 30.15 851 25.13 -2.1 28.2 62 -8.4 16.9
01:15 1022 30.18 851 25.13 -2.2 28.1 62 -8.5 16.6
01:20 1022 30.18 851 25.13 -2.6 27.4 61 -9.1 15.7
01:25 1022 30.18 851 25.13 -2.4 27.6 60 -9.2 15.5
01:30 1022 30.18 851 25.13 -2.3 27.9 60 -9.1 15.7
01:35 1022 30.18 851 25.13 -2 28.5 57 -9.4 15.1
01:40 1022 30.18 851 25.13 -2 28.4 58 -9.1 15.6
01:45 1022 30.18 851 25.13 -2.2 28 59 -9.1 15.6
01:50 1022 30.18 851 25.13 -2.4 27.8 61 -9 15.8
01:55 1022 30.18 851 25.13 -2.5 27.4 61 -9.1 15.6
02:00 1022 30.18 851 25.13 -2.5 27.5 60 -9.2 15.5
02:05 1022 30.18 851 25.13 -2.5 27.6 60 -9.1 15.6
02:10 1022 30.18 851 25.13 -2.9 26.9 62 -9.1 15.7
02:15 1022 30.18 851 25.13 -3.6 25.5 64 -9.5 15
02:20 1022 30.18 851 25.13 -3.8 25.2 65 -9.5 14.9
02:25 1022 30.18 851 25.13 -3.8 25.1 64 -9.6 14.7
02:30 1022 30.18 851 25.13 -3.5 25.7 61 -10 14.1
02:35 1022 30.18 851 25.13 -3.6 25.6 62 -9.9 14.2
02:40 1022 30.18 851 25.13 -3.5 25.6 62 -9.9 14.2
02:45 1022 30.18 851 25.13 -3.7 25.4 62 -10 13.9
02:50 1022 30.18 851 25.13 -3.8 25.2 62 -10 14
02:55 1022 30.18 851 25.13 -4.1 24.6 64 -9.9 14.2
03:00 1022 30.18 851 25.13 -3.8 25.1 61 -10.3 13.4
03:05 1022 30.18 851 25.13 -3.8 25.1 60 -10.6 12.9
03:10 1022 30.18 851 25.13 -3.5 25.7 59 -10.4 13.3
03:15 1022 30.18 851 25.13 -3.7 25.4 62 -10 14.1
03:20 1022 30.18 851 25.13 -4 24.9 61 -10.5 13.2
03:25 1022 30.18 851 25.13 -3.9 24.9 61 -10.3 13.4
03:30 1022 30.18 851 25.13 -4.3 24.2 63 -10.3 13.5
03:35 1022 30.18 851 25.13 -4.4 24.2 63 -10.4 13.4
03:40 1022 30.18 851 25.13 -4 24.7 66 -9.4 15
03:45 1022 30.18 851 25.13 -4 24.9 60 -10.7 12.8
03:50 1022 30.18 851 25.13 -3.7 25.4 60 -10.3 13.4
03:55 1022 30.18 851 25.13 -4 24.8 62 -10.3 13.5
04:00 1022 30.18 851 25.13 -4.4 24.1 63 -10.3 13.4
04:05 1022 30.18 851 25.13 -4.9 23.2 65 -10.5 13.1
04:10 1022 30.18 851 25.13 -4.7 23.5 68 -9.8 14.4
04:15 1022 30.18 851 25.13 -4 24.8 61 -10.4 13.3
04:20 1022 30.18 851 25.13 -3.5 25.7 59 -10.3 13.5
04:25 1022 30.18 851 25.13 -4 24.8 60 -10.5 13
04:30 1022 30.18 851 25.13 -4.4 24.1 62 -10.5 13
04:35 1022 30.18 851 25.13 -5.2 22.6 66 -10.7 12.8
04:40 1022 30.18 852 25.16 -5 23 63 -10.9 12.3
04:45 1022 30.18 852 25.16 -4.5 24 61 -10.9 12.4
04:50 1023 30.21 852 25.16 -4.4 24.1 61 -10.8 12.6
04:55 1023 30.21 852 25.16 -4.5 23.9 61 -10.9 12.4
05:00 1023 30.21 852 25.16 -4.6 23.7 62 -10.8 12.5
05:05 1023 30.21 852 25.16 -4.7 23.6 63 -10.6 12.9
05:10 1023 30.21 852 25.16 -5 23.1 65 -10.6 13
05:15 1023 30.21 852 25.16 -5 23 62 -11.1 12
05:20 1023 30.21 853 25.19 -5 23 62 -11.1 12
05:25 1023 30.21 853 25.19 -5.2 22.6 64 -11.1 12
05:30 1024 30.24 853 25.19 -4.9 23.1 61 -11.3 11.6
05:35 1024 30.24 853 25.19 -4.8 23.4 62 -10.9 12.4
05:40 1024 30.24 853 25.19 -4.9 23.2 62 -11 12.2
05:45 1024 30.24 853 25.19 -4.4 24 59 -11.2 11.8
05:50 1024 30.24 853 25.19 -4.3 24.3 60 -10.9 12.3
05:55 1024 30.24 853 25.19 -5 23 62 -11.2 11.8
06:00 1024 30.24 853 25.19 -5.3 22.5 65 -10.8 12.5
06:05 1024 30.24 853 25.19 -5.3 22.5 62 -11.4 11.5
06:10 1024 30.24 853 25.19 -5.7 21.8 65 -11.3 11.6
06:15 1024 30.24 853 25.19 -5.5 22.1 62 -11.6 11.1
06:20 1024 30.24 853 25.19 -5.4 22.3 61 -11.9 10.6
06:25 1024 30.24 853 25.19 -5.4 22.3 59 -12.3 9.9
06:30 1024 30.24 853 25.19 -5.3 22.5 59 -12.1 10.1
06:35 1024 30.24 853 25.19 -5.4 22.3 59 -12.2 10
06:40 1024 30.24 853 25.19 -5.3 22.5 59 -12 10.3
06:45 1024 30.24 853 25.19 -5.3 22.5 60 -11.9 10.6
06:50 1024 30.24 853 25.19 -5.3 22.5 60 -11.8 10.7
06:55 1024 30.24 853 25.19 -5.4 22.4 62 -11.6 11.1
07:00 1024 30.24 854 25.22 -5.3 22.4 62 -11.6 11.1
07:05 1024 30.24 854 25.22 -5.4 22.3 62 -11.5 11.2
07:10 1024 30.24 854 25.22 -5.5 22.1 62 -11.6 11.1
07:15 1024 30.24 854 25.22 -5.5 22.1 62 -11.7 11
07:20 1024 30.24 854 25.22 -5.4 22.2 61 -11.8 10.7
07:25 1025 30.27 854 25.22 -5.4 22.3 60 -11.9 10.5
07:30 1025 30.27 854 25.22 -5.3 22.5 61 -11.8 10.8
07:35 1025 30.27 854 25.22 -5.3 22.5 60 -11.9 10.7
07:40 1025 30.27 854 25.22 -5.3 22.5 60 -12 10.4
07:45 1025 30.27 854 25.22 -5.3 22.5 58 -12.3 9.9
07:50 1025 30.27 854 25.22 -5.2 22.6 58 -12.1 10.1
07:55 1025 30.27 854 25.22 -5.3 22.5 59 -12.2 10.1
08:00 1025 30.27 854 25.22 -5.2 22.6 59 -12.1 10.2
08:05 1025 30.27 854 25.22 -5 23 58 -12 10.4
08:10 1025 30.27 854 25.22 -4.7 23.6 57 -12 10.3
08:15 1025 30.27 854 25.22 -4.9 23.2 57 -12.1 10.3
08:20 1025 30.27 854 25.22 -4.9 23.2 58 -12 10.4
08:25 1025 30.27 854 25.22 -5 23.1 59 -11.8 10.8
08:30 1025 30.27 854 25.22 -4.8 23.4 58 -11.8 10.7
08:35 1025 30.27 854 25.22 -4.7 23.5 59 -11.7 11
08:40 1025 30.27 854 25.22 -4.8 23.4 59 -11.7 11
08:45 1025 30.27 854 25.22 -4.4 24.1 57 -11.6 11.1
08:50 1025 30.27 854 25.22 -3.7 25.3 55 -11.5 11.2
08:55 1025 30.27 854 25.22 -3.5 25.7 54 -11.5 11.4
09:00 1025 30.27 854 25.22 -2.4 27.6 50 -11.6 11.1
09:05 1025 30.27 855 25.25 -1.4 29.4 47 -11.3 11.6
09:10 1025 30.27 855 25.25 -0.8 30.6 46 -11 12.2
09:15 1025 30.27 855 25.25 -0.2 31.7 43 -11.5 11.4
09:20 1025 30.27 855 25.25 0.5 32.9 40 -11.4 11.4
09:25 1025 30.27 855 25.25 0.8 33.4 41 -11.2 11.9
09:30 1026 30.3 855 25.25 0.9 33.6 42 -10.7 12.8
09:35 1026 30.3 855 25.25 0.4 32.7 44 -10.5 13.1
09:40 1026 30.3 855 25.25 0.2 32.4 44 -10.7 12.7
09:45 1026 30.3 855 25.25 0.4 32.8 40 -11.6 11.2
09:50 1026 30.3 855 25.25 1.2 34.2 42 -10.3 13.5
09:55 1025 30.27 855 25.25 1.2 34.2 42 -10.5 13.2
10:00 1026 30.3 855 25.25 2 35.5 39 -10.6 13
10:05 1025 30.27 855 25.25 2.2 35.9 40 -10.2 13.6
10:10 1025 30.27 855 25.25 2.7 36.8 37 -10.6 13
10:15 1026 30.3 855 25.25 3.3 37.9 35 -10.7 12.8
10:20 1026 30.3 855 25.25 3.4 38.1 34 -11 12.2
10:25 1026 30.3 855 25.25 3.4 38.1 33 -11.4 11.4
10:30 1026 30.3 855 25.25 2.7 36.9 35 -11.1 12
10:35 1026 30.3 855 25.25 3 37.3 35 -11 12.2
10:40 1025 30.27 855 25.25 3.4 38 33 -11.3 11.7
10:45 1025 30.27 855 25.25 3.5 38.3 34 -10.8 12.6
10:50 1025 30.27 855 25.25 3.9 39 33 -10.9 12.4
10:55 1025 30.27 855 25.25 3.7 38.6 33 -11.1 11.9
11:00 1025 30.27 855 25.25 3.8 38.8 33 -11 12.1
11:05 1025 30.27 855 25.25 4.2 39.6 32 -11 12.1
11:10 1026 30.3 855 25.25 4.6 40.2 31 -11.1 12
11:15 1026 30.3 855 25.25 4.9 40.9 30 -11.2 11.9
11:20 1025 30.27 855 25.25 5.3 41.5 31 -10.7 12.8
11:25 1025 30.27 855 25.25 5.3 41.6 30 -10.9 12.4
11:30 1025 30.27 855 25.25 5.5 41.9 29 -11.1 12
11:35 1025 30.27 855 25.25 5.7 42.3 29 -10.9 12.3
11:40 1025 30.27 854 25.22 6 42.8 29 -10.8 12.6
11:45 1025 30.27 854 25.22 6.2 43.1 28 -10.9 12.4
11:50 1025 30.27 854 25.22 6.1 43 27 -11.5 11.3
11:55 1025 30.27 854 25.22 6.1 42.9 27 -11.5 11.2
12:00 1025 30.27 854 25.22 6.2 43.2 28 -11 12.3
12:05 1025 30.27 854 25.22 6.1 43 29 -10.7 12.7
12:10 1025 30.27 854 25.22 7.1 44.7 27 -10.9 12.4
12:15 1025 30.27 854 25.22 7.4 45.3 27 -10.7 12.8
12:20 1025 30.27 854 25.22 7.4 45.3 26 -10.8 12.6
12:25 1025 30.27 854 25.22 7.2 44.9 26 -11.1 11.9
12:30 1025 30.27 854 25.22 7.6 45.7 26 -10.5 13.1
12:35 1025 30.27 854 25.22 7.7 45.9 27 -10.1 13.9
12:40 1024 30.24 854 25.22 7.5 45.4 28 -10.1 13.9
12:45 1024 30.24 854 25.22 7.9 46.2 28 -9.7 14.5
12:50 1024 30.24 854 25.22 8.2 46.8 27 -9.8 14.4
12:55 1024 30.24 854 25.22 7.9 46.3 27 -10.2 13.7
13:00 1024 30.24 853 25.19 6.5 43.7 28 -10.8 12.5
13:05 1024 30.24 853 25.19 7.1 44.8 26 -10.9 12.3
13:10 1024 30.24 853 25.19 7.1 44.9 28 -10.4 13.3
13:15 1024 30.24 853 25.19 7.4 45.4 27 -10.4 13.4
13:20 1024 30.24 853 25.19 7.7 45.9 25 -10.9 12.4
13:25 1024 30.24 853 25.19 7.8 46.1 24 -11.6 11.1
13:30 1024 30.24 853 25.19 7.7 45.9 24 -11.5 11.2
13:35 1024 30.24 853 25.19 8.1 46.6 24 -11.5 11.4
13:40 1024 30.24 853 25.19 8.5 47.3 23 -11.3 11.6
13:45 1024 30.24 853 25.19 8.4 47 22 -12.4 9.7
13:50 1024 30.24 853 25.19 8.9 48.1 22 -11.7 11
13:55 1024 30.24 853 25.19 8.7 47.7 22 -11.9 10.6
14:00 1023 30.21 853 25.19 7.9 46.3 22 -12.5 9.5
14:05 1023 30.21 853 25.19 8.6 47.4 22 -12.3 9.9
14:10 1023 30.21 852 25.16 8.6 47.5 21 -12.4 9.7
14:15 1023 30.21 852 25.16 8.5 47.4 22 -12 10.4
14:20 1023 30.21 852 25.16 9.2 48.5 19 -13.1 8.4
14:25 1023 30.21 852 25.16 9.7 49.4 20 -12.4 9.7
14:30 1023 30.21 852 25.16 9 48.2 20 -12.6 9.3
14:35 1023 30.21 852 25.16 9.2 48.6 19 -13.6 7.6
14:40 1023 30.21 852 25.16 8.7 47.6 17 -14.8 5.3
14:45 1023 30.21 852 25.16 7.8 46 16 -16.5 2.3
14:50 1023 30.21 852 25.16 8.1 46.6 18 -15 5
14:55 1023 30.21 852 25.16 8.4 47.2 19 -14.1 6.6
15:00 1023 30.21 852 25.16 8.4 47.2 20 -13.4 7.9
15:05 1023 30.21 852 25.16 8.5 47.2 18 -14.8 5.3
15:10 1023 30.21 852 25.16 8.5 47.2 19 -13.8 7.2
15:15 1023 30.21 852 25.16 8.6 47.4 19 -14 6.8
15:20 1023 30.21 852 25.16 9.3 48.7 20 -12.8 8.9
15:25 1023 30.21 852 25.16 9.4 49 20 -12.6 9.4
15:30 1023 30.21 852 25.16 9.3 48.8 20 -12.7 9.1
15:35 1023 30.21 852 25.16 8.9 48 20 -12.6 9.3
15:40 1023 30.21 852 25.16 9.5 49.1 19 -12.8 8.9
15:45 1023 30.21 852 25.16 9.4 49 19 -13 8.6
15:50 1023 30.21 852 25.16 9.5 49 19 -13.3 8.1
15:55 1023 30.21 852 25.16 9.4 49 19 -13.3 8.1
16:00 1023 30.21 852 25.16 9.8 49.7 18 -13.6 7.5
16:05 1023 30.21 852 25.16 9.8 49.6 23 -10.3 13.4
16:10 1023 30.21 852 25.16 8.5 47.4 27 -9.5 15
16:15 1023 30.21 852 25.16 7.6 45.8 26 -10.6 12.9
16:20 1023 30.21 852 25.16 7.5 45.6 27 -10.5 13.1
16:25 1023 30.21 852 25.16 7.4 45.2 26 -10.8 12.5
16:30 1023 30.21 852 25.16 7.2 45 26 -11.3 11.7
16:35 1023 30.21 852 25.16 7.2 44.9 24 -11.9 10.5
16:40 1023 30.21 852 25.16 7.2 45 24 -12.2 10.1
16:45 1023 30.21 852 25.16 7 44.7 27 -10.6 12.9
16:50 1023 30.21 852 25.16 7.2 45 27 -10.7 12.8
16:55 1023 30.21 852 25.16 7.5 45.5 25 -11.2 11.9
17:00 1023 30.21 852 25.16 7.4 45.3 24 -12 10.5
17:05 1022 30.18 852 25.16 6.9 44.4 25 -12 10.4
17:10 1022 30.18 852 25.16 6.8 44.3 26 -11.6 11.1
17:15 1022 30.18 852 25.16 6.9 44.3 25 -11.7 10.9
17:20 1022 30.18 852 25.16 6.8 44.3 25 -12 10.4
17:25 1022 30.18 852 25.16 6.3 43.4 28 -11 12.2
17:30 1023 30.21 852 25.16 5.6 42 31 -10.3 13.5
17:35 1023 30.21 852 25.16 4.8 40.6 32 -10.6 12.9
17:40 1023 30.21 852 25.16 4.4 40 31 -11.1 12
17:45 1023 30.21 852 25.16 4 39.2 34 -10.7 12.8
17:50 1023 30.21 852 25.16 3.8 38.9 34 -10.8 12.6
17:55 1023 30.21 852 25.16 3.5 38.3 35 -10.6 12.8
18:00 1023 30.21 852 25.16 3.1 37.6 36 -10.4 13.2
18:05 1023 30.21 852 25.16 2.5 36.4 38 -10.4 13.3
18:10 1023 30.21 852 25.16 2.1 35.8 38 -10.9 12.4
18:15 1023 30.21 852 25.16 2.1 35.8 38 -10.9 12.4
18:20 1023 30.21 852 25.16 2 35.5 38 -10.9 12.4
18:25 1023 30.21 852 25.16 1.8 35.3 38 -11.2 11.9
18:30 1023 30.21 852 25.16 1.7 35 37 -11.5 11.3
18:35 1023 30.21 852 25.16 1.4 34.6 38 -11.2 11.8
18:40 1023 30.21 852 25.16 1.4 34.5 38 -11.4 11.4
18:45 1023 30.21 852 25.16 1.5 34.6 38 -11.5 11.3
18:50 1023 30.21 852 25.16 1.4 34.6 38 -11.5 11.3
18:55 1023 30.21 852 25.16 1 33.9 38 -11.8 10.8
19:00 1023 30.21 852 25.16 0.8 33.4 39 -11.8 10.8
19:05 1023 30.21 852 25.16 0.7 33.2 39 -11.8 10.7
19:10 1023 30.21 852 25.16 1 33.8 38 -11.8 10.8
19:15 1023 30.21 852 25.16 1.2 34.1 38 -11.5 11.3
19:20 1023 30.21 852 25.16 1 33.9 38 -11.8 10.8
19:25 1023 30.21 852 25.16 0.7 33.3 40 -11.5 11.3
19:30 1023 30.21 852 25.16 0.4 32.8 40 -11.7 11
19:35 1023 30.21 852 25.16 0.2 32.3 41 -11.6 11.2
19:40 1023 30.21 852 25.16 0.1 32.1 42 -11.5 11.3
19:45 1023 30.21 852 25.16 -0 31.9 41 -11.8 10.8
19:50 1023 30.21 852 25.16 -0.1 31.9 38 -12.7 9.2
19:55 1023 30.21 852 25.16 0.1 32.2 36 -13.4 7.8
20:00 1022 30.18 852 25.16 0.3 32.6 34 -13.7 7.4
20:05 1023 30.21 852 25.16 0.4 32.7 36 -13.2 8.3
20:10 1023 30.21 852 25.16 0.4 32.7 35 -13.4 7.8
20:15 1022 30.18 852 25.16 0.4 32.7 36 -12.9 8.7
20:20 1022 30.18 852 25.16 0.1 32.2 36 -13.4 7.9
20:25 1022 30.18 852 25.16 0.1 32.2 37 -13.1 8.5
20:30 1022 30.18 852 25.16 0.2 32.4 35 -13.5 7.7
20:35 1022 30.18 852 25.16 -0.2 31.7 39 -12.7 9.2
20:40 1022 30.18 852 25.16 -0.2 31.6 37 -13.3 8.1
20:45 1023 30.21 852 25.16 0.5 32.9 32 -14.2 6.4
20:50 1023 30.21 852 25.16 0.8 33.5 32 -14.1 6.6
20:55 1022 30.18 852 25.16 0.8 33.4 33 -13.9 6.9
21:00 1022 30.18 852 25.16 0.6 33.1 35 -13.4 7.9
21:05 1023 30.21 852 25.16 0.1 32.3 35 -13.5 7.7
21:10 1023 30.21 852 25.16 0.2 32.4 34 -14 6.7
21:15 1023 30.21 852 25.16 0.1 32.1 35 -13.7 7.4
21:20 1023 30.21 852 25.16 -0.1 31.8 36 -13.3 8
21:25 1023 30.21 852 25.16 -0.2 31.7 36 -13.7 7.4
21:30 1023 30.21 852 25.16 0.1 32.1 35 -13.9 7
21:35 1023 30.21 852 25.16 0.6 33.1 35 -13.3 8
21:40 1023 30.21 852 25.16 0.5 33 35 -13.2 8.2
21:45 1023 30.21 852 25.16 -0 32 36 -13.4 7.8
21:50 1023 30.21 852 25.16 -0.2 31.7 38 -12.9 8.8
21:55 1023 30.21 852 25.16 -0.2 31.7 34 -14.2 6.5
22:00 1022 30.18 852 25.16 0.1 32.2 34 -14.1 6.7
22:05 1022 30.18 852 25.16 0 32 35 -13.7 7.4
22:10 1022 30.18 852 25.16 -0.4 31.2 40 -12.6 9.3
22:15 1023 30.21 852 25.16 -1.1 30 42 -12.5 9.5
22:20 1023 30.21 852 25.16 -0.7 30.7 38 -13.4 7.8
22:25 1023 30.21 852 25.16 -0.4 31.3 38 -12.9 8.8
22:30 1023 30.21 852 25.16 -0.4 31.2 37 -13.3 8.1
22:35 1023 30.21 852 25.16 -0.3 31.4 35 -13.9 6.9
22:40 1023 30.21 852 25.16 0.1 32.3 35 -13.5 7.7
22:45 1022 30.18 852 25.16 -0.2 31.6 39 -12.7 9.1
22:50 1022 30.18 852 25.16 -0.6 30.9 39 -12.9 8.8
22:55 1022 30.18 852 25.16 -0.5 31 39 -12.9 8.8
23:00 1022 30.18 852 25.16 -0.3 31.5 37 -13.2 8.3
23:05 1023 30.21 852 25.16 -0.3 31.5 38 -13.1 8.4
23:10 1023 30.21 852 25.16 0.1 32.1 36 -13.4 7.8
23:15 1022 30.18 852 25.16 0 32.1 37 -13.1 8.4
23:20 1022 30.18 852 25.16 -0.4 31.3 38 -13.1 8.3
23:25 1022 30.18 852 25.16 -0.4 31.3 38 -13.2 8.3
23:30 1022 30.18 852 25.16 -0.5 31.2 39 -12.7 9.2
23:35 1022 30.18 852 25.16 -0.8 30.6 37 -13.8 7.2
23:40 1022 30.18 852 25.16 -0.2 31.7 35 -13.8 7.1
23:45 1022 30.18 852 25.16 -0.1 31.8 36 -13.3 8
23:50 1022 30.18 852 25.16 0.1 32.1 35 -13.8 7.1
23:55 1022 30.18 852 25.16 0.3 32.6 35 -13.4 7.8
24:00 1022 30.18 852 25.16 0.3 32.5 36 -13 8.6